Ashville, AL

2:17 AM CDT on April 18, 2015 (GMT -0500)
KALASHVI3 | | Change Station
CLOSE
Current Station
Personal Weather Station
Location: Ashville, AL
Elevation: 646 ft
Nearby Weather Stations

Elev 646 ft 33.81 °N, 86.25 °W | Updated 25 seconds ago

Overcast
Overcast
61.6 °F
Feels Like 61.6 °F
N
0.0
Wind Variable Wind from North
Gusts 11.0 mph

Today
High -- | Low -- °F
--% Chance of Precip.
Yesterday
High -- | Low -- °F
Precip. -- in
6:10 AM 7:18 PM
Waning Crescent, 0% visible
Pressure 29.98 in
Visibility 3.0 miles
Clouds Overcast 400 ft
Dew Point 61 °F
Humidity 99%
Rainfall 0.00 in
Snow Depth Not available.
UV 0 out of 12
Pollen 7.00 out of 12
Air Quality Not available.
Flu Activity Sporadic
METAR KGAD 180655Z 03005KT 3SM OVC004 17/14 A2998 RMK AO1

More Conditions Fewer Conditions

Pressure 29.98 in
Visibility 3.0 miles
Clouds Overcast 400 ft
Dew Point 61 °F
Humidity 99%
Rainfall 0.00 in
Snow Depth Not available.
UV 0 out of 12
Pollen 7.00 out of 12
Air Quality Not available.
Flu Activity Sporadic
METAR KGAD 180655Z 03005KT 3SM OVC004 17/14 A2998 RMK AO1

More Conditions Fewer Conditions

10-Day Weather Forecast

Almanac

Astronomy

Apr. 18, 2015 Rise Set
Actual Time
Civil Twilight
Nautical Twilight
Astronomical Twilight
Moon
Length of Visible Light
Length of Day
Tomorrow will be .
, % of the Moon is Illuminated

Today's Extremes

State Highs State Lows

Community

WunderPhotos

Upload Photos

1,814,341 photos uploaded!

WunderBlogs® & News

Nearby

Air Quality

  Air Quality AQ Index Pollutant
Not available.

Snow Depth

Station Depth Elevation

Earthquake Activity

City Distance Mag. Time & Date
Minimum magnitude displayed is 2.5.

Coastal Water Temperatures

Place Temperature

Stations

Nearby Weather Stations

Station Location Temp. Windchill Dew Point Humidity Wind Precip. Elev Updated Type